Time,TemperatureF,DewpointF,PressureIn,WindDirection,WindDirectionDegrees,WindSpeedMPH,WindSpeedGustMPH,Humidity,HourlyPrecipIn,Conditions,Clouds,dailyrainin,SoftwareType,DateUTC
2013-08-21 00:02:00,70.2,45.4,29.93,South,187,3.6,3.6,41,0.00,,CLR,0.00,VWS V14.01,2013-08-21 05:02:00,
2013-08-21 00:08:00,70.2,45.4,29.93,SSW,199,0.0,0.0,41,0.00,,CLR,0.00,VWS V14.01,2013-08-21 05:08:00,
2013-08-21 00:14:00,70.2,46.0,29.93,SSW,200,3.6,3.6,42,0.00,,CLR,0.00,VWS V14.01,2013-08-21 05:14:00,
2013-08-21 00:19:00,70.2,46.0,29.93,SSW,204,0.0,0.0,42,0.00,,CLR,0.00,VWS V14.01,2013-08-21 05:19:00,
2013-08-21 00:24:00,70.2,46.0,29.93,SSW,212,2.7,4.0,42,0.00,,CLR,0.00,VWS V14.01,2013-08-21 05:24:00,
2013-08-21 00:29:00,70.2,46.0,29.93,West,263,0.0,0.0,42,0.00,,CLR,0.00,VWS V14.01,2013-08-21 05:29:00,
2013-08-21 00:34:00,70.2,46.0,29.93,SW,220,0.0,0.0,42,0.00,,CLR,0.00,VWS V14.01,2013-08-21 05:34:00,
2013-08-21 00:39:00,70.2,46.0,29.93,SSW,211,4.0,4.9,42,0.00,,CLR,0.00,VWS V14.01,2013-08-21 05:39:00,
2013-08-21 00:44:00,70.2,46.0,29.93,South,191,0.0,0.0,42,0.00,,CLR,0.00,VWS V14.01,2013-08-21 05:44:00,
2013-08-21 00:49:00,70.2,46.6,29.93,South,183,0.0,0.0,43,0.00,,CLR,0.00,VWS V14.01,2013-08-21 05:49:00,
2013-08-21 00:55:00,70.2,46.6,29.93,SSE,164,2.2,3.1,43,0.00,,CLR,0.00,VWS V14.01,2013-08-21 05:55:00,
2013-08-21 01:01:00,70.2,46.6,29.93,South,191,0.0,2.7,43,0.00,,CLR,0.00,VWS V14.01,2013-08-21 06:01:00,
2013-08-21 01:06:00,70.2,46.6,29.93,South,171,2.2,2.7,43,0.00,,CLR,0.00,VWS V14.01,2013-08-21 06:06:00,
2013-08-21 01:12:00,70.0,46.5,29.93,SSW,196,0.0,0.0,43,0.00,,CLR,0.00,VWS V14.01,2013-08-21 06:12:00,
2013-08-21 01:17:00,70.0,46.5,29.91,South,188,0.0,0.0,43,0.00,,CLR,0.00,VWS V14.01,2013-08-21 06:17:00,
2013-08-21 01:22:00,70.0,46.5,29.91,South,181,0.0,0.0,43,0.00,,CLR,0.00,VWS V14.01,2013-08-21 06:22:00,
2013-08-21 01:27:00,70.0,46.5,29.91,SSE,167,0.0,0.0,43,0.00,,CLR,0.00,VWS V14.01,2013-08-21 06:27:00,
2013-08-21 01:32:00,70.0,47.1,29.91,SSW,194,0.0,0.0,44,0.00,,CLR,0.00,VWS V14.01,2013-08-21 06:32:00,
2013-08-21 01:37:00,70.0,47.1,29.91,South,174,3.1,4.9,44,0.00,,CLR,0.00,VWS V14.01,2013-08-21 06:37:00,
2013-08-21 01:42:00,70.0,47.1,29.91,South,179,0.0,0.0,44,0.00,,CLR,0.00,VWS V14.01,2013-08-21 06:42:00,
2013-08-21 01:47:00,70.0,47.1,29.91,South,175,0.0,2.7,44,0.00,,CLR,0.00,VWS V14.01,2013-08-21 06:47:00,
2013-08-21 01:52:00,70.0,47.1,29.91,SSE,162,0.0,0.0,44,0.00,,CLR,0.00,VWS V14.01,2013-08-21 06:52:00,
2013-08-21 01:57:00,70.0,47.1,29.91,South,176,0.0,2.2,44,0.00,,CLR,0.00,VWS V14.01,2013-08-21 06:57:00,
2013-08-21 02:02:00,70.2,47.2,29.91,SSE,156,0.0,0.0,44,0.00,,OVC090,0.00,VWS V14.01,2013-08-21 07:02:00,
2013-08-21 02:07:00,70.2,47.2,29.91,SSE,168,3.6,5.4,44,0.00,,OVC090,0.00,VWS V14.01,2013-08-21 07:07:00,
2013-08-21 02:12:00,70.2,47.2,29.91,South,182,3.1,3.1,44,0.00,,OVC090,0.00,VWS V14.01,2013-08-21 07:12:00,
2013-08-21 02:17:00,70.2,47.2,29.91,SSW,194,0.0,0.0,44,0.00,,OVC090,0.00,VWS V14.01,2013-08-21 07:17:00,
2013-08-21 02:22:00,70.2,47.2,29.91,SSE,166,0.0,4.0,44,0.00,,OVC090,0.00,VWS V14.01,2013-08-21 07:22:00,
2013-08-21 02:27:00,70.2,47.2,29.91,SSE,156,2.7,3.6,44,0.00,,OVC090,0.00,VWS V14.01,2013-08-21 07:27:00,
2013-08-21 02:32:00,70.2,47.2,29.91,SSE,163,3.1,4.0,44,0.00,,OVC090,0.00,VWS V14.01,2013-08-21 07:32:00,
2013-08-21 02:37:00,70.0,47.1,29.91,South,181,6.3,6.3,44,0.00,,OVC090,0.00,VWS V14.01,2013-08-21 07:37:00,
2013-08-21 02:42:00,69.8,46.9,29.91,South,175,2.7,4.0,44,0.00,,OVC090,0.00,VWS V14.01,2013-08-21 07:42:00,
2013-08-21 02:47:00,69.6,47.4,29.91,SSE,152,0.0,4.0,45,0.00,,OVC090,0.00,VWS V14.01,2013-08-21 07:47:00,
2013-08-21 02:52:00,69.4,47.2,29.91,SW,216,0.0,0.0,45,0.00,,OVC090,0.00,VWS V14.01,2013-08-21 07:52:00,
2013-08-21 02:57:00,69.3,47.6,29.91,South,180,0.0,0.0,46,0.00,,OVC090,0.00,VWS V14.01,2013-08-21 07:57:00,
2013-08-21 03:02:00,69.1,48.0,29.91,South,179,2.7,4.9,47,0.00,,FEW090,0.00,VWS V14.01,2013-08-21 08:02:00,
2013-08-21 03:07:00,68.9,47.9,29.91,SE,138,2.7,3.6,47,0.00,,FEW090,0.00,VWS V14.01,2013-08-21 08:07:00,
2013-08-21 03:12:00,68.9,49.0,29.91,South,187,3.1,4.0,49,0.00,,FEW090,0.00,VWS V14.01,2013-08-21 08:12:00,
2013-08-21 03:17:00,68.7,49.3,29.88,SSE,157,0.0,2.7,50,0.00,,FEW090,0.00,VWS V14.01,2013-08-21 08:17:00,
2013-08-21 03:22:00,68.5,49.2,29.88,SSE,163,0.0,3.1,50,0.00,,FEW090,0.00,VWS V14.01,2013-08-21 08:22:00,
2013-08-21 03:28:00,68.5,49.7,29.88,South,182,2.7,4.0,51,0.00,,FEW090,0.00,VWS V14.01,2013-08-21 08:28:00,
2013-08-21 03:33:00,68.5,49.7,29.88,SSE,158,0.0,0.0,51,0.00,,FEW090,0.00,VWS V14.01,2013-08-21 08:33:00,
2013-08-21 03:38:00,68.5,49.7,29.88,South,171,0.0,0.0,51,0.00,,FEW090,0.00,VWS V14.01,2013-08-21 08:38:00,
2013-08-21 03:43:00,68.5,50.2,29.88,SSW,196,0.0,4.0,52,0.00,,FEW090,0.00,VWS V14.01,2013-08-21 08:43:00,
2013-08-21 03:48:00,68.5,50.2,29.88,South,189,0.0,0.0,52,0.00,,FEW090,0.00,VWS V14.01,2013-08-21 08:48:00,
2013-08-21 03:53:00,68.5,50.8,29.88,South,172,0.0,0.0,53,0.00,,FEW090,0.00,VWS V14.01,2013-08-21 08:53:00,
2013-08-21 03:58:00,68.5,51.2,29.88,South,173,0.0,0.0,54,0.00,,FEW090,0.00,VWS V14.01,2013-08-21 08:58:00,
2013-08-21 04:04:00,68.7,51.9,29.91,SSE,164,4.0,4.9,55,0.00,,SCT085,0.00,VWS V14.01,2013-08-21 09:04:00,
2013-08-21 04:09:00,68.9,51.6,29.91,SSE,147,3.1,3.6,54,0.00,,SCT085,0.00,VWS V14.01,2013-08-21 09:09:00,
2013-08-21 04:14:00,69.1,50.7,29.91,SE,144,4.9,4.9,52,0.00,,SCT085,0.00,VWS V14.01,2013-08-21 09:14:00,
2013-08-21 04:19:00,69.3,49.8,29.91,SW,225,5.4,5.4,50,0.00,,SCT085,0.00,VWS V14.01,2013-08-21 09:19:00,
2013-08-21 04:24:00,69.4,49.5,29.91,SSW,213,3.1,5.8,49,0.00,,SCT085,0.00,VWS V14.01,2013-08-21 09:24:00,
2013-08-21 04:29:00,69.6,49.6,29.91,SSW,212,2.7,2.7,49,0.00,,SCT085,0.00,VWS V14.01,2013-08-21 09:29:00,
2013-08-21 04:34:00,69.6,49.6,29.91,SSE,165,0.0,2.2,49,0.00,,SCT085,0.00,VWS V14.01,2013-08-21 09:34:00,
2013-08-21 04:38:00,69.6,49.1,29.91,SSW,200,4.9,5.4,48,0.00,,SCT085,0.00,VWS V14.01,2013-08-21 09:38:00,
2013-08-21 04:43:00,69.8,48.7,29.91,SSW,208,0.0,0.0,47,0.00,,SCT085,0.00,VWS V14.01,2013-08-21 09:43:00,
2013-08-21 04:48:00,69.8,48.7,29.91,South,178,3.6,4.0,47,0.00,,SCT085,0.00,VWS V14.01,2013-08-21 09:48:00,
2013-08-21 04:53:00,69.8,48.1,29.91,South,190,2.7,2.7,46,0.00,,SCT085,0.00,VWS V14.01,2013-08-21 09:53:00,
2013-08-21 04:58:00,69.8,48.1,29.91,SSW,209,3.1,4.0,46,0.00,,SCT085,0.00,VWS V14.01,2013-08-21 09:58:00,
2013-08-21 05:03:00,69.8,48.1,29.88,SW,224,0.0,5.4,46,0.00,,BKN060,0.00,VWS V14.01,2013-08-21 10:03:00,
2013-08-21 05:08:00,69.8,48.1,29.88,SW,227,2.2,5.4,46,0.00,,BKN060,0.00,VWS V14.01,2013-08-21 10:08:00,
2013-08-21 05:14:00,69.8,48.7,29.88,South,185,2.2,3.6,47,0.00,,BKN060,0.00,VWS V14.01,2013-08-21 10:14:00,
2013-08-21 05:18:00,69.8,48.7,29.91,South,178,2.7,3.6,47,0.00,,BKN060,0.00,VWS V14.01,2013-08-21 10:18:00,
2013-08-21 05:23:00,69.6,49.1,29.91,SSW,193,0.0,4.0,48,0.00,,BKN060,0.00,VWS V14.01,2013-08-21 10:23:00,
2013-08-21 05:28:00,69.6,49.1,29.91,South,179,3.6,5.8,48,0.00,,BKN060,0.00,VWS V14.01,2013-08-21 10:28:00,
2013-08-21 05:33:00,69.4,48.9,29.91,SSE,155,5.8,5.8,48,0.00,,BKN060,0.00,VWS V14.01,2013-08-21 10:33:00,
2013-08-21 05:38:00,69.4,48.9,29.91,SSW,199,4.0,5.4,48,0.00,,BKN060,0.00,VWS V14.01,2013-08-21 10:38:00,
2013-08-21 05:43:00,69.3,49.3,29.91,SSW,199,3.1,4.0,49,0.00,,BKN060,0.00,VWS V14.01,2013-08-21 10:43:00,
2013-08-21 05:48:00,69.1,49.7,29.88,SW,214,2.2,4.9,50,0.00,,BKN060,0.00,VWS V14.01,2013-08-21 10:48:00,
2013-08-21 05:53:00,69.1,50.2,29.88,SSW,193,0.0,0.0,51,0.00,,BKN060,0.00,VWS V14.01,2013-08-21 10:53:00,
2013-08-21 05:58:00,68.9,50.0,29.88,South,185,3.6,4.0,51,0.00,,BKN060,0.00,VWS V14.01,2013-08-21 10:58:00,
2013-08-21 06:03:00,68.7,50.4,29.91,SW,226,3.1,3.1,52,0.00,,BKN070,0.00,VWS V14.01,2013-08-21 11:03:00,
2013-08-21 06:08:00,68.7,50.4,29.91,SSW,202,3.1,4.0,52,0.00,,BKN070,0.00,VWS V14.01,2013-08-21 11:08:00,
2013-08-21 06:13:00,68.5,50.8,29.91,South,185,0.0,0.0,53,0.00,,BKN070,0.00,VWS V14.01,2013-08-21 11:13:00,
2013-08-21 06:18:00,68.4,50.6,29.91,South,179,0.0,0.0,53,0.00,,BKN070,0.00,VWS V14.01,2013-08-21 11:18:00,
2013-08-21 06:23:00,68.4,52.1,29.91,SSW,199,2.7,3.6,56,0.00,,BKN070,0.00,VWS V14.01,2013-08-21 11:23:00,
2013-08-21 06:28:00,68.2,51.9,29.91,SSW,203,0.0,3.1,56,0.00,,BKN070,0.00,VWS V14.01,2013-08-21 11:28:00,
2013-08-21 06:34:00,68.2,52.4,29.91,SW,217,2.7,4.0,57,0.00,,BKN070,0.00,VWS V14.01,2013-08-21 11:34:00,
2013-08-21 06:39:00,68.2,52.9,29.91,South,175,3.1,4.0,58,0.00,,BKN070,0.00,VWS V14.01,2013-08-21 11:39:00,
2013-08-21 06:44:00,68.2,52.9,29.91,SSE,167,4.0,4.0,58,0.00,,BKN070,0.00,VWS V14.01,2013-08-21 11:44:00,
2013-08-21 06:49:00,68.2,53.3,29.91,South,174,4.0,4.0,59,0.00,,BKN070,0.00,VWS V14.01,2013-08-21 11:49:00,
2013-08-21 06:54:00,68.0,53.2,29.91,SSW,213,5.8,5.8,59,0.00,,BKN070,0.00,VWS V14.01,2013-08-21 11:54:00,
2013-08-21 06:59:00,68.0,53.2,29.91,SSE,163,3.6,3.6,59,0.00,,BKN070,0.00,VWS V14.01,2013-08-21 11:59:00,
2013-08-21 07:04:00,68.2,53.8,29.91,South,178,3.1,4.9,60,0.00,,FEW060,0.00,VWS V14.01,2013-08-21 12:04:00,
2013-08-21 07:09:00,68.2,53.8,29.91,SSW,196,2.7,3.1,60,0.00,,FEW060,0.00,VWS V14.01,2013-08-21 12:09:00,
2013-08-21 07:15:00,68.2,53.8,29.91,SSE,158,5.4,5.4,60,0.00,,FEW060,0.00,VWS V14.01,2013-08-21 12:15:00,
2013-08-21 07:20:00,68.4,54.0,29.91,SSW,205,3.1,5.4,60,0.00,,FEW060,0.00,VWS V14.01,2013-08-21 12:20:00,
2013-08-21 07:26:00,68.5,53.7,29.91,SSW,198,5.4,5.4,59,0.00,,FEW060,0.00,VWS V14.01,2013-08-21 12:26:00,
2013-08-21 07:31:00,68.7,53.4,29.91,SSW,201,3.1,4.0,58,0.00,,FEW060,0.00,VWS V14.01,2013-08-21 12:31:00,
2013-08-21 07:36:00,68.9,52.6,29.91,SSW,209,6.3,8.1,56,0.00,,FEW060,0.00,VWS V14.01,2013-08-21 12:36:00,
2013-08-21 07:42:00,69.3,52.4,29.91,SSW,201,3.6,4.9,55,0.00,,FEW060,0.00,VWS V14.01,2013-08-21 12:42:00,
2013-08-21 07:47:00,69.4,52.1,29.91,SSW,201,0.0,5.8,54,0.00,,FEW060,0.00,VWS V14.01,2013-08-21 12:47:00,
2013-08-21 07:52:00,69.8,50.9,29.91,SW,217,7.6,8.1,51,0.00,,FEW060,0.00,VWS V14.01,2013-08-21 12:52:00,
2013-08-21 07:57:00,70.0,50.5,29.91,SW,220,7.6,7.6,50,0.00,,FEW060,0.00,VWS V14.01,2013-08-21 12:57:00,
2013-08-21 08:02:00,70.3,50.3,29.88,SSW,198,5.8,7.6,49,0.00,,FEW070,0.00,VWS V14.01,2013-08-21 13:02:00,
2013-08-21 08:07:00,70.5,49.9,29.88,SW,221,3.1,6.3,48,0.00,,FEW070,0.00,VWS V14.01,2013-08-21 13:07:00,
2013-08-21 08:12:00,70.9,49.7,29.88,WSW,245,2.2,5.8,47,0.00,,FEW070,0.00,VWS V14.01,2013-08-21 13:12:00,
2013-08-21 08:17:00,71.1,49.3,29.88,South,188,5.4,5.4,46,0.00,,FEW070,0.00,VWS V14.01,2013-08-21 13:17:00,
2013-08-21 08:22:00,71.4,49.6,29.88,SSW,199,4.5,4.5,46,0.00,,FEW070,0.00,VWS V14.01,2013-08-21 13:22:00,
2013-08-21 08:27:00,71.8,48.7,29.88,SSE,166,5.4,8.3,44,0.00,,FEW070,0.00,VWS V14.01,2013-08-21 13:27:00,
2013-08-21 08:32:00,72.0,48.3,29.91,SSW,213,3.1,5.8,43,0.00,,FEW070,0.00,VWS V14.01,2013-08-21 13:32:00,
2013-08-21 08:37:00,72.1,48.4,29.91,South,189,5.4,5.4,43,0.00,,FEW070,0.00,VWS V14.01,2013-08-21 13:37:00,
2013-08-21 08:42:00,72.3,48.0,29.91,SSW,207,6.3,11.0,42,0.00,,FEW070,0.00,VWS V14.01,2013-08-21 13:42:00,
2013-08-21 08:47:00,72.3,48.6,29.91,South,188,8.3,8.3,43,0.00,,FEW070,0.00,VWS V14.01,2013-08-21 13:47:00,
2013-08-21 08:52:00,72.3,48.6,29.91,SW,229,10.1,10.1,43,0.00,,FEW070,0.00,VWS V14.01,2013-08-21 13:52:00,
2013-08-21 08:57:00,72.5,48.8,29.91,SW,220,5.4,8.7,43,0.00,,FEW070,0.00,VWS V14.01,2013-08-21 13:57:00,
2013-08-21 09:02:00,72.9,48.5,29.91,SSW,194,3.1,4.0,42,0.00,,CLR,0.00,VWS V14.01,2013-08-21 14:02:00,
2013-08-21 09:07:00,73.2,48.8,29.91,SSW,204,4.9,4.9,42,0.00,,CLR,0.00,VWS V14.01,2013-08-21 14:07:00,
2013-08-21 09:13:00,73.8,48.6,29.91,SW,222,5.8,6.7,41,0.00,,CLR,0.00,VWS V14.01,2013-08-21 14:13:00,
2013-08-21 09:18:00,74.3,48.4,29.91,SSE,160,4.0,6.3,40,0.00,,CLR,0.00,VWS V14.01,2013-08-21 14:18:00,
2013-08-21 09:23:00,75.0,47.7,29.91,SSE,168,3.6,5.8,38,0.00,,CLR,0.00,VWS V14.01,2013-08-21 14:23:00,
2013-08-21 09:28:00,75.4,46.6,29.91,SSW,205,6.3,6.3,36,0.00,,CLR,0.00,VWS V14.01,2013-08-21 14:28:00,
2013-08-21 09:33:00,75.4,45.9,29.91,SSW,211,4.0,4.0,35,0.00,,CLR,0.00,VWS V14.01,2013-08-21 14:33:00,
2013-08-21 09:38:00,75.6,46.0,29.91,SSW,192,7.6,7.6,35,0.00,,CLR,0.00,VWS V14.01,2013-08-21 14:38:00,
2013-08-21 09:43:00,75.7,46.2,29.91,South,191,4.0,5.4,35,0.00,,CLR,0.00,VWS V14.01,2013-08-21 14:43:00,
2013-08-21 09:48:00,75.9,45.6,29.91,SE,142,6.3,8.1,34,0.00,,CLR,0.00,VWS V14.01,2013-08-21 14:48:00,
2013-08-21 09:54:00,76.3,45.1,29.91,South,175,7.2,8.3,33,0.00,,CLR,0.00,VWS V14.01,2013-08-21 14:54:00,
2013-08-21 09:59:00,76.5,46.0,29.91,West,271,4.0,8.1,34,0.00,,CLR,0.00,VWS V14.01,2013-08-21 14:59:00,
2013-08-21 10:04:00,76.8,45.6,29.91,South,182,4.9,8.1,33,0.00,,FEW080,0.00,VWS V14.01,2013-08-21 15:04:00,
2013-08-21 10:09:00,77.0,45.7,29.91,South,189,5.8,8.7,33,0.00,,FEW080,0.00,VWS V14.01,2013-08-21 15:09:00,
2013-08-21 10:14:00,77.0,45.7,29.91,SSW,205,4.5,6.3,33,0.00,,FEW080,0.00,VWS V14.01,2013-08-21 15:14:00,
2013-08-21 10:20:00,77.4,46.8,29.91,SSW,198,3.6,6.3,34,0.00,,FEW080,0.00,VWS V14.01,2013-08-21 15:20:00,
2013-08-21 10:25:00,77.7,45.5,29.91,SSE,162,6.3,8.7,32,0.00,,FEW080,0.00,VWS V14.01,2013-08-21 15:25:00,
2013-08-21 10:30:00,78.3,46.0,29.91,South,191,4.9,5.8,32,0.00,,FEW080,0.00,VWS V14.01,2013-08-21 15:30:00,
2013-08-21 10:35:00,78.4,45.3,29.91,WSW,240,8.3,8.3,31,0.00,,FEW080,0.00,VWS V14.01,2013-08-21 15:35:00,
2013-08-21 10:40:00,78.6,46.3,29.91,SW,221,6.3,6.3,32,0.00,,FEW080,0.00,VWS V14.01,2013-08-21 15:40:00,
2013-08-21 10:45:00,79.0,45.8,29.91,South,176,8.7,8.7,31,0.00,,FEW080,0.00,VWS V14.01,2013-08-21 15:45:00,
2013-08-21 10:50:00,79.2,46.0,29.91,WSW,255,10.1,10.1,31,0.00,,FEW080,0.00,VWS V14.01,2013-08-21 15:50:00,
2013-08-21 10:55:00,79.5,46.3,29.91,WSW,245,5.4,6.3,31,0.00,,FEW080,0.00,VWS V14.01,2013-08-21 15:55:00,
2013-08-21 11:00:00,79.7,45.6,29.91,South,183,5.8,7.6,30,0.00,,SCT085,0.00,VWS V14.01,2013-08-21 16:00:00,
2013-08-21 11:05:00,79.9,45.7,29.91,SSE,156,5.8,6.3,30,0.00,,SCT085,0.00,VWS V14.01,2013-08-21 16:05:00,
2013-08-21 11:10:00,80.2,46.0,29.91,SSW,209,5.4,8.1,30,0.00,,SCT085,0.00,VWS V14.01,2013-08-21 16:10:00,
2013-08-21 11:15:00,80.4,46.2,29.91,South,177,8.7,9.2,30,0.00,,SCT085,0.00,VWS V14.01,2013-08-21 16:15:00,
2013-08-21 11:20:00,80.4,46.2,29.91,SSW,208,10.1,10.1,30,0.00,,SCT085,0.00,VWS V14.01,2013-08-21 16:20:00,
2013-08-21 11:25:00,80.6,45.4,29.91,SSW,192,12.3,12.3,29,0.00,,SCT085,0.00,VWS V14.01,2013-08-21 16:25:00,
2013-08-21 11:30:00,80.6,46.3,29.91,SW,221,2.7,6.3,30,0.00,,SCT085,0.00,VWS V14.01,2013-08-21 16:30:00,
2013-08-21 11:35:00,80.6,46.3,29.91,SW,232,7.2,7.2,30,0.00,,SCT085,0.00,VWS V14.01,2013-08-21 16:35:00,
2013-08-21 11:40:00,81.1,46.8,29.91,South,185,3.1,7.6,30,0.00,,SCT085,0.00,VWS V14.01,2013-08-21 16:40:00,
2013-08-21 11:45:00,81.7,47.3,29.91,SSW,207,7.6,8.1,30,0.00,,SCT085,0.00,VWS V14.01,2013-08-21 16:45:00,
2013-08-21 11:50:00,81.9,45.6,29.88,SW,222,12.3,12.3,28,0.00,,SCT085,0.00,VWS V14.01,2013-08-21 16:50:00,
2013-08-21 11:55:00,81.9,44.6,29.88,WSW,238,5.8,9.6,27,0.00,,SCT085,0.00,VWS V14.01,2013-08-21 16:55:00,
2013-08-21 12:00:00,82.0,44.8,29.88,WSW,257,5.8,6.3,27,0.00,,FEW065,0.00,VWS V14.01,2013-08-21 17:00:00,
2013-08-21 12:05:00,82.2,44.9,29.88,East,82,8.3,8.3,27,0.00,,FEW065,0.00,VWS V14.01,2013-08-21 17:05:00,
2013-08-21 12:11:00,82.4,44.1,29.88,WSW,241,8.1,11.0,26,0.00,,FEW065,0.00,VWS V14.01,2013-08-21 17:11:00,
2013-08-21 12:17:00,82.8,44.4,29.88,West,265,12.8,12.8,26,0.00,,FEW065,0.00,VWS V14.01,2013-08-21 17:17:00,
2013-08-21 12:22:00,82.9,44.6,29.88,SSW,195,7.6,7.6,26,0.00,,FEW065,0.00,VWS V14.01,2013-08-21 17:22:00,
2013-08-21 12:27:00,83.1,43.7,29.88,SW,216,10.5,10.5,25,0.00,,FEW065,0.00,VWS V14.01,2013-08-21 17:27:00,
2013-08-21 12:33:00,83.1,43.7,29.88,SSW,196,8.3,10.1,25,0.00,,FEW065,0.00,VWS V14.01,2013-08-21 17:33:00,
2013-08-21 12:38:00,83.3,43.8,29.88,SSW,194,8.1,8.7,25,0.00,,FEW065,0.00,VWS V14.01,2013-08-21 17:38:00,
2013-08-21 12:44:00,83.3,44.9,29.88,SE,142,8.1,8.3,26,0.00,,FEW065,0.00,VWS V14.01,2013-08-21 17:44:00,
2013-08-21 12:49:00,83.3,42.8,29.88,SW,222,5.4,8.7,24,0.00,,FEW065,0.00,VWS V14.01,2013-08-21 17:49:00,
2013-08-21 12:54:00,83.8,44.3,29.88,WSW,246,8.1,8.1,25,0.00,,FEW065,0.00,VWS V14.01,2013-08-21 17:54:00,
2013-08-21 13:00:00,84.6,43.8,29.88,SW,218,7.2,8.1,24,0.00,,FEW065,0.00,VWS V14.01,2013-08-21 18:00:00,
2013-08-21 13:06:00,85.1,43.2,29.88,SSW,196,6.3,6.7,23,0.00,,CLR,0.00,VWS V14.01,2013-08-21 18:06:00,
2013-08-21 13:12:00,85.6,43.6,29.88,SW,221,5.4,8.7,23,0.00,,CLR,0.00,VWS V14.01,2013-08-21 18:12:00,
2013-08-21 13:17:00,85.8,42.6,29.88,SSW,204,4.5,17.0,22,0.00,,CLR,0.00,VWS V14.01,2013-08-21 18:17:00,
2013-08-21 13:22:00,85.5,41.1,29.88,SSE,163,8.3,14.5,21,0.00,,CLR,0.00,VWS V14.01,2013-08-21 18:22:00,
2013-08-21 13:27:00,85.5,42.3,29.88,WSW,254,4.0,8.1,22,0.00,,CLR,0.00,VWS V14.01,2013-08-21 18:27:00,
2013-08-21 13:32:00,85.8,41.4,29.88,SW,219,6.3,20.1,21,0.00,,CLR,0.00,VWS V14.01,2013-08-21 18:32:00,
2013-08-21 13:38:00,85.8,41.4,29.85,SW,225,11.0,13.2,21,0.00,,CLR,0.00,VWS V14.01,2013-08-21 18:38:00,
2013-08-21 13:44:00,86.4,41.9,29.85,SSW,198,8.1,8.1,21,0.00,,CLR,0.00,VWS V14.01,2013-08-21 18:44:00,
2013-08-21 13:49:00,86.7,42.2,29.85,SSW,208,12.8,13.2,21,0.00,,CLR,0.00,VWS V14.01,2013-08-21 18:49:00,
2013-08-21 13:55:00,86.7,42.2,29.85,SSW,196,6.3,6.3,21,0.00,,CLR,0.00,VWS V14.01,2013-08-21 18:55:00,
2013-08-21 14:01:00,86.7,42.2,29.85,West,267,7.2,8.3,21,0.00,,FEW070,0.00,VWS V14.01,2013-08-21 19:01:00,
2013-08-21 14:06:00,86.9,42.3,29.85,South,177,3.6,12.8,21,0.00,,FEW070,0.00,VWS V14.01,2013-08-21 19:06:00,
2013-08-21 14:11:00,86.9,42.3,29.85,SSW,210,5.8,10.1,21,0.00,,FEW070,0.00,VWS V14.01,2013-08-21 19:11:00,
2013-08-21 14:16:00,87.3,42.6,29.85,West,267,6.3,7.2,21,0.00,,FEW070,0.00,VWS V14.01,2013-08-21 19:16:00,
2013-08-21 14:22:00,87.1,41.2,29.82,SSW,193,10.1,11.4,20,0.00,,FEW070,0.00,VWS V14.01,2013-08-21 19:22:00,
2013-08-21 14:27:00,86.5,40.8,29.82,SSW,212,6.3,10.1,20,0.00,,FEW070,0.00,VWS V14.01,2013-08-21 19:27:00,
2013-08-21 14:32:00,86.7,42.2,29.82,SSW,213,3.6,5.8,21,0.00,,FEW070,0.00,VWS V14.01,2013-08-21 19:32:00,
2013-08-21 14:37:00,87.1,42.5,29.82,SW,234,5.8,6.3,21,0.00,,FEW070,0.00,VWS V14.01,2013-08-21 19:37:00,
2013-08-21 14:43:00,87.1,41.2,29.82,South,174,7.6,10.1,20,0.00,,FEW070,0.00,VWS V14.01,2013-08-21 19:43:00,
2013-08-21 14:49:00,87.6,41.6,29.82,South,183,6.3,12.3,20,0.00,,FEW070,0.00,VWS V14.01,2013-08-21 19:49:00,
2013-08-21 14:54:00,87.6,41.6,29.82,WSW,242,10.5,12.8,20,0.00,,FEW070,0.00,VWS V14.01,2013-08-21 19:54:00,
2013-08-21 15:00:00,88.0,40.6,29.82,South,185,7.6,8.1,19,0.00,,FEW070,0.00,VWS V14.01,2013-08-21 20:00:00,
2013-08-21 15:05:00,88.2,40.8,29.82,SSW,200,2.7,7.6,19,0.00,,CLR,0.00,VWS V14.01,2013-08-21 20:05:00,
2013-08-21 15:11:00,88.2,40.8,29.82,SSW,213,10.1,12.3,19,0.00,,CLR,0.00,VWS V14.01,2013-08-21 20:11:00,
2013-08-21 15:16:00,88.3,40.9,29.82,SSW,203,8.7,8.7,19,0.00,,CLR,0.00,VWS V14.01,2013-08-21 20:16:00,
2013-08-21 15:21:00,88.2,40.8,29.82,SW,235,11.0,11.0,19,0.00,,CLR,0.00,VWS V14.01,2013-08-21 20:21:00,
2013-08-21 15:26:00,88.3,40.9,29.82,SSW,205,8.7,8.7,19,0.00,,CLR,0.00,VWS V14.01,2013-08-21 20:26:00,
2013-08-21 15:32:00,88.3,40.9,29.82,West,264,7.6,11.0,19,0.00,,CLR,0.00,VWS V14.01,2013-08-21 20:32:00,
2013-08-21 15:37:00,88.2,40.8,29.82,SE,142,10.5,12.8,19,0.00,,CLR,0.00,VWS V14.01,2013-08-21 20:37:00,
2013-08-21 15:43:00,88.0,40.6,29.82,SSW,207,8.3,9.2,19,0.00,,CLR,0.00,VWS V14.01,2013-08-21 20:43:00,
2013-08-21 15:49:00,88.3,40.9,29.82,South,187,8.3,8.3,19,0.00,,CLR,0.00,VWS V14.01,2013-08-21 20:49:00,
2013-08-21 15:55:00,88.0,40.6,29.82,WSW,256,6.3,12.3,19,0.00,,CLR,0.00,VWS V14.01,2013-08-21 20:55:00,
2013-08-21 16:00:00,87.8,40.5,29.82,WSW,237,9.6,14.5,19,0.00,,CLR,0.00,VWS V14.01,2013-08-21 21:00:00,
2013-08-21 16:05:00,87.6,40.3,29.79,SSE,168,6.3,8.1,19,0.00,,CLR,0.00,VWS V14.01,2013-08-21 21:05:00,
2013-08-21 16:10:00,87.6,40.3,29.79,South,180,6.3,8.3,19,0.00,,CLR,0.00,VWS V14.01,2013-08-21 21:10:00,
2013-08-21 16:15:00,88.0,40.6,29.79,SE,138,5.4,10.5,19,0.00,,CLR,0.00,VWS V14.01,2013-08-21 21:15:00,
2013-08-21 16:20:00,87.8,40.5,29.79,South,183,6.3,8.1,19,0.00,,CLR,0.00,VWS V14.01,2013-08-21 21:20:00,
2013-08-21 16:26:00,87.8,40.5,29.79,SSW,207,3.1,11.9,19,0.00,,CLR,0.00,VWS V14.01,2013-08-21 21:26:00,
2013-08-21 16:31:00,87.8,40.5,29.79,SW,230,6.3,11.0,19,0.00,,CLR,0.00,VWS V14.01,2013-08-21 21:31:00,
2013-08-21 16:37:00,87.6,40.3,29.79,SW,229,5.8,11.0,19,0.00,,CLR,0.00,VWS V14.01,2013-08-21 21:37:00,
2013-08-21 16:43:00,87.3,41.3,29.79,SW,221,8.1,8.1,20,0.00,,CLR,0.00,VWS V14.01,2013-08-21 21:43:00,
2013-08-21 16:48:00,87.6,41.6,29.79,SW,226,8.1,8.7,20,0.00,,CLR,0.00,VWS V14.01,2013-08-21 21:48:00,
2013-08-21 16:54:00,87.4,40.2,29.79,South,190,5.8,10.5,19,0.00,,CLR,0.00,VWS V14.01,2013-08-21 21:54:00,
2013-08-21 16:59:00,87.4,40.2,29.79,SSW,212,11.0,15.4,19,0.00,,CLR,0.00,VWS V14.01,2013-08-21 21:59:00,
2013-08-21 17:04:00,87.3,40.0,29.79,SW,229,10.5,14.5,19,0.00,,CLR,0.00,VWS V14.01,2013-08-21 22:04:00,
2013-08-21 17:09:00,87.3,40.0,29.79,SW,227,5.8,10.5,19,0.00,,CLR,0.00,VWS V14.01,2013-08-21 22:09:00,
2013-08-21 17:15:00,86.7,39.6,29.79,SSW,211,4.5,16.8,19,0.00,,CLR,0.00,VWS V14.01,2013-08-21 22:15:00,
2013-08-21 17:20:00,86.9,39.7,29.79,SSE,148,3.6,5.4,19,0.00,,CLR,0.00,VWS V14.01,2013-08-21 22:20:00,
2013-08-21 17:25:00,86.9,39.7,29.79,WSW,249,6.3,12.3,19,0.00,,CLR,0.00,VWS V14.01,2013-08-21 22:25:00,
2013-08-21 17:31:00,86.7,39.6,29.79,SSW,211,14.5,14.5,19,0.00,,CLR,0.00,VWS V14.01,2013-08-21 22:31:00,
2013-08-21 17:36:00,86.5,39.4,29.76,SSE,163,6.3,8.7,19,0.00,,CLR,0.00,VWS V14.01,2013-08-21 22:36:00,
2013-08-21 17:42:00,86.2,40.5,29.76,SW,221,5.4,8.1,20,0.00,,CLR,0.00,VWS V14.01,2013-08-21 22:42:00,
2013-08-21 17:47:00,86.0,40.3,29.76,SSW,195,6.3,8.1,20,0.00,,CLR,0.00,VWS V14.01,2013-08-21 22:47:00,
2013-08-21 17:53:00,86.0,40.3,29.76,SW,236,7.6,9.6,20,0.00,,CLR,0.00,VWS V14.01,2013-08-21 22:53:00,
2013-08-21 17:59:00,85.3,39.7,29.76,WSW,244,8.7,10.1,20,0.00,,CLR,0.00,VWS V14.01,2013-08-21 22:59:00,
2013-08-21 18:04:00,84.7,39.3,29.76,SW,220,12.3,14.1,20,0.00,,CLR,0.00,VWS V14.01,2013-08-21 23:04:00,
2013-08-21 18:10:00,84.4,39.0,29.76,SSW,213,5.8,11.0,20,0.00,,CLR,0.00,VWS V14.01,2013-08-21 23:10:00,
2013-08-21 18:15:00,84.2,38.8,29.76,SW,216,10.1,10.1,20,0.00,,CLR,0.00,VWS V14.01,2013-08-21 23:15:00,
2013-08-21 18:21:00,84.0,39.9,29.79,South,176,5.8,11.9,21,0.00,,CLR,0.00,VWS V14.01,2013-08-21 23:21:00,
2013-08-21 18:27:00,84.0,39.9,29.79,SSW,211,5.8,6.7,21,0.00,,CLR,0.00,VWS V14.01,2013-08-21 23:27:00,
2013-08-21 18:32:00,83.8,39.8,29.79,SW,218,6.3,8.1,21,0.00,,CLR,0.00,VWS V14.01,2013-08-21 23:32:00,
2013-08-21 18:38:00,83.7,39.6,29.79,SSW,207,6.3,10.1,21,0.00,,CLR,0.00,VWS V14.01,2013-08-21 23:38:00,
2013-08-21 18:43:00,83.7,39.6,29.79,SSW,205,10.5,10.5,21,0.00,,CLR,0.00,VWS V14.01,2013-08-21 23:43:00,
2013-08-21 18:49:00,83.7,39.6,29.79,SSW,204,5.8,5.8,21,0.00,,CLR,0.00,VWS V14.01,2013-08-21 23:49:00,
2013-08-21 18:55:00,83.5,39.5,29.79,WSW,237,7.6,8.1,21,0.00,,CLR,0.00,VWS V14.01,2013-08-21 23:55:00,
2013-08-21 19:00:00,83.3,39.3,29.79,SSW,201,6.3,8.1,21,0.00,,CLR,0.00,VWS V14.01,2013-08-22 00:00:00,
2013-08-21 19:06:00,83.1,40.4,29.79,SW,221,11.4,11.4,22,0.00,,CLR,0.00,VWS V14.01,2013-08-22 00:06:00,
2013-08-21 19:11:00,83.1,40.4,29.79,SW,218,8.3,10.1,22,0.00,,CLR,0.00,VWS V14.01,2013-08-22 00:11:00,
2013-08-21 19:17:00,82.8,40.1,29.82,SSW,208,7.6,8.7,22,0.00,,CLR,0.00,VWS V14.01,2013-08-22 00:17:00,
2013-08-21 19:22:00,82.6,41.1,29.82,SW,224,5.8,8.7,23,0.00,,CLR,0.00,VWS V14.01,2013-08-22 00:22:00,
2013-08-21 19:28:00,82.4,40.9,29.82,WSW,238,8.1,8.1,23,0.00,,CLR,0.00,VWS V14.01,2013-08-22 00:28:00,
2013-08-21 19:34:00,82.4,40.9,29.82,South,185,5.8,5.8,23,0.00,,CLR,0.00,VWS V14.01,2013-08-22 00:34:00,
2013-08-21 19:39:00,82.2,41.9,29.82,SSW,213,3.6,6.3,24,0.00,,CLR,0.00,VWS V14.01,2013-08-22 00:39:00,
2013-08-21 19:44:00,82.2,41.9,29.82,WSW,248,6.3,6.3,24,0.00,,CLR,0.00,VWS V14.01,2013-08-22 00:44:00,
2013-08-21 19:49:00,82.0,42.8,29.82,WSW,240,4.9,6.3,25,0.00,,CLR,0.00,VWS V14.01,2013-08-22 00:49:00,
2013-08-21 19:55:00,81.7,42.5,29.82,WSW,241,2.7,5.8,25,0.00,,CLR,0.00,VWS V14.01,2013-08-22 00:55:00,
2013-08-21 20:00:00,81.5,43.3,29.82,SSW,212,5.4,5.4,26,0.00,,CLR,0.00,VWS V14.01,2013-08-22 01:00:00,
2013-08-21 20:05:00,81.5,44.3,29.85,SSW,202,3.1,4.9,27,0.00,,OVC055,0.00,VWS V14.01,2013-08-22 01:05:00,
2013-08-21 20:10:00,81.3,44.2,29.85,SSW,210,3.6,5.4,27,0.00,,OVC055,0.00,VWS V14.01,2013-08-22 01:10:00,
2013-08-21 20:16:00,81.3,45.1,29.85,SSW,203,3.6,3.6,28,0.00,,OVC055,0.00,VWS V14.01,2013-08-22 01:16:00,
2013-08-21 20:21:00,81.1,45.9,29.85,SW,220,2.7,3.6,29,0.00,,OVC055,0.00,VWS V14.01,2013-08-22 01:21:00,
2013-08-21 20:27:00,81.0,45.8,29.85,SSW,203,3.1,5.8,29,0.00,,OVC055,0.00,VWS V14.01,2013-08-22 01:27:00,
2013-08-21 20:32:00,80.8,46.5,29.88,SW,217,3.6,4.0,30,0.00,,OVC055,0.00,VWS V14.01,2013-08-22 01:32:00,
2013-08-21 20:37:00,80.8,46.5,29.88,SW,225,0.0,0.0,30,0.00,,OVC055,0.00,VWS V14.01,2013-08-22 01:37:00,
2013-08-21 20:43:00,80.6,46.3,29.88,West,269,0.0,0.0,30,0.00,,OVC055,0.00,VWS V14.01,2013-08-22 01:43:00,
2013-08-21 20:48:00,80.1,41.1,29.93,WNW,286,15.0,21.0,25,0.00,,OVC055,0.00,VWS V14.01,2013-08-22 01:48:00,
2013-08-21 20:54:00,77.4,37.8,29.93,North,7,13.2,17.4,24,0.00,,OVC055,0.00,VWS V14.01,2013-08-22 01:54:00,
2013-08-21 20:59:00,75.0,39.7,29.93,North,3,16.8,16.8,28,0.00,,OVC055,0.00,VWS V14.01,2013-08-22 01:59:00,
2013-08-21 21:04:00,73.4,41.8,29.93,North,357,7.6,11.0,32,0.00,,BKN050,0.00,VWS V14.01,2013-08-22 02:04:00,
2013-08-21 21:09:00,72.3,43.2,29.93,NNE,15,4.0,5.8,35,0.00,,BKN050,0.00,VWS V14.01,2013-08-22 02:09:00,
2013-08-21 21:15:00,71.4,43.8,29.93,NNE,13,2.7,4.0,37,0.00,,BKN050,0.00,VWS V14.01,2013-08-22 02:15:00,
2013-08-21 21:20:00,71.2,44.4,29.88,NE,51,0.0,0.0,38,0.00,,BKN050,0.00,VWS V14.01,2013-08-22 02:20:00,
2013-08-21 21:26:00,70.7,45.2,29.88,NNE,17,5.4,5.4,40,0.00,,BKN050,0.00,VWS V14.01,2013-08-22 02:26:00,
2013-08-21 21:31:00,70.5,47.0,29.88,North,11,3.6,5.4,43,0.00,,BKN050,0.00,VWS V14.01,2013-08-22 02:31:00,
2013-08-21 21:36:00,70.3,47.4,29.91,North,10,0.0,4.0,44,0.00,,BKN050,0.00,VWS V14.01,2013-08-22 02:36:00,
2013-08-21 21:41:00,70.2,47.2,29.91,North,9,0.0,0.0,44,0.00,,BKN050,0.00,VWS V14.01,2013-08-22 02:41:00,
2013-08-21 21:46:00,70.0,47.1,29.91,North,9,0.0,0.0,44,0.00,,BKN050,0.00,VWS V14.01,2013-08-22 02:46:00,
2013-08-21 21:52:00,69.8,46.9,29.88,North,9,0.0,0.0,44,0.00,,BKN050,0.00,VWS V14.01,2013-08-22 02:52:00,
2013-08-21 21:58:00,69.8,47.5,29.88,North,10,0.0,0.0,45,0.00,,BKN050,0.00,VWS V14.01,2013-08-22 02:58:00,
2013-08-21 22:04:00,69.8,50.3,29.91,North,10,0.0,0.0,50,0.00,,-RA,0.00,VWS V14.01,2013-08-22 03:04:00,
2013-08-21 22:09:00,69.8,51.4,29.91,North,353,0.0,0.0,52,0.00,,-RA,0.00,VWS V14.01,2013-08-22 03:09:00,
2013-08-21 22:15:00,69.6,51.8,29.91,East,94,5.4,5.4,53,0.00,,-RA,0.00,VWS V14.01,2013-08-22 03:15:00,
2013-08-21 22:20:00,69.4,51.1,29.85,ESE,102,0.0,0.0,52,0.00,,-RA,0.00,VWS V14.01,2013-08-22 03:20:00,
2013-08-21 22:26:00,69.4,53.6,29.85,WSW,241,7.6,7.6,57,0.00,,-RA,0.00,VWS V14.01,2013-08-22 03:26:00,
2013-08-21 22:31:00,69.3,53.9,29.85,NNE,20,0.0,0.0,58,0.00,,-RA,0.00,VWS V14.01,2013-08-22 03:31:00,
2013-08-21 22:37:00,69.3,53.9,29.91,NNE,12,0.0,0.0,58,0.00,,-RA,0.00,VWS V14.01,2013-08-22 03:37:00,
2013-08-21 22:43:00,69.3,54.8,29.91,NNE,12,0.0,0.0,60,0.00,,-RA,0.00,VWS V14.01,2013-08-22 03:43:00,
2013-08-21 22:48:00,69.3,54.8,29.91,SSE,166,0.0,0.0,60,0.00,,-RA,0.00,VWS V14.01,2013-08-22 03:48:00,
2013-08-21 22:54:00,69.3,54.8,29.91,SSE,154,0.0,0.0,60,0.00,,-RA,0.00,VWS V14.01,2013-08-22 03:54:00,
2013-08-21 23:00:00,69.3,54.8,29.91,SSE,161,0.0,0.0,60,0.00,,-RA,0.00,VWS V14.01,2013-08-22 04:00:00,
2013-08-21 23:01:00,69.3,54.8,29.91,SSE,162,0.0,0.0,60,0.00,,-RA,0.00,VWS V14.01,2013-08-22 04:01:00,
2013-08-21 23:02:00,69.3,54.8,29.93,SSE,161,0.0,0.0,60,0.00,,-RA,0.00,VWS V14.01,2013-08-22 04:02:00,
2013-08-21 23:03:00,69.3,55.2,29.93,SSE,161,0.0,0.0,61,0.00,,-RA,0.00,VWS V14.01,2013-08-22 04:03:00,
2013-08-21 23:05:00,69.3,55.2,29.93,SSE,163,0.0,0.0,61,0.00,,-RA,0.00,VWS V14.01,2013-08-22 04:05:00,
2013-08-21 23:09:00,69.3,55.2,29.93,SSE,163,0.0,0.0,61,0.00,,-RA,0.00,VWS V14.01,2013-08-22 04:09:00,
2013-08-21 23:15:00,69.1,56.0,29.93,South,185,0.0,0.0,63,0.00,,-RA,0.00,VWS V14.01,2013-08-22 04:15:00,
2013-08-21 23:20:00,69.1,56.0,29.91,SSE,166,0.0,0.0,63,0.00,,-RA,0.00,VWS V14.01,2013-08-22 04:20:00,
2013-08-21 23:26:00,69.1,56.0,29.91,South,170,0.0,0.0,63,0.00,,-RA,0.00,VWS V14.01,2013-08-22 04:26:00,
2013-08-21 23:31:00,69.1,56.0,29.91,South,176,0.0,0.0,63,0.00,,-RA,0.00,VWS V14.01,2013-08-22 04:31:00,
2013-08-21 23:36:00,69.3,56.1,29.91,South,176,0.0,0.0,63,0.00,,-RA,0.00,VWS V14.01,2013-08-22 04:36:00,
2013-08-21 23:42:00,69.3,55.7,29.91,South,176,0.0,0.0,62,0.00,,-RA,0.00,VWS V14.01,2013-08-22 04:42:00,
2013-08-21 23:47:00,69.3,55.7,29.91,South,176,0.0,0.0,62,0.00,,-RA,0.00,VWS V14.01,2013-08-22 04:47:00,
2013-08-21 23:53:00,69.1,55.1,29.91,South,176,0.0,0.0,61,0.00,,-RA,0.00,VWS V14.01,2013-08-22 04:53:00,
2013-08-21 23:59:00,69.1,55.1,29.91,South,176,0.0,0.0,61,0.00,,-RA,0.00,VWS V14.01,2013-08-22 04:59:00,